Time;durP1;ratioP1;P1;durP2;ratioP2;P2;SDS_P1;SDS_P2;PMS_P1;PMS_P2;Temp;Humidity;BMP_temperature;BMP_pressure;BME280_temperature;BME280_humidity;BME280_pressure;Samples;Min_cycle;Max_cycle;Signal;HPM_P1;HPM_P2
2022/04/13 00:02:11;;;;;;;11.00;5.87;;;9.30;46.40;;;;;;5237891;28;20195;-47
2022/04/13 00:04:42;;;;;;;7.40;5.93;;;9.30;46.40;;;;;;5247244;28;20209;-45
2022/04/13 00:07:12;;;;;;;12.90;6.83;;;9.20;46.60;;;;;;5246883;28;20190;-49
2022/04/13 00:09:43;;;;;;;9.50;5.90;;;9.20;46.70;;;;;;5230650;28;20189;-46
2022/04/13 00:12:13;;;;;;;10.17;7.40;;;9.10;46.70;;;;;;5245896;28;20210;-47
2022/04/13 00:14:44;;;;;;;9.80;6.20;;;9.10;46.90;;;;;;5243210;28;20248;-47
2022/04/13 00:17:15;;;;;;;10.40;7.30;;;9.10;47.10;;;;;;5241699;28;20175;-48
2022/04/13 00:19:45;;;;;;;14.70;6.47;;;9.00;47.20;;;;;;5225471;28;20195;-46
2022/04/13 00:22:16;;;;;;;14.03;6.90;;;9.00;47.40;;;;;;5242545;28;20546;-47
2022/04/13 00:24:46;;;;;;;9.00;6.73;;;8.90;47.50;;;;;;5237066;28;20218;-46
2022/04/13 00:27:17;;;;;;;13.90;7.03;;;8.90;47.70;;;;;;5228712;28;20190;-48
2022/04/13 00:29:49;;;;;;;15.20;6.70;;;8.90;47.80;;;;;;5244016;28;20221;-47
2022/04/13 00:32:20;;;;;;;18.00;6.57;;;8.80;47.80;;;;;;5241089;28;20301;-48
2022/04/13 00:34:50;;;;;;;12.50;6.60;;;8.80;48.10;;;;;;5247295;28;20460;-47
2022/04/13 00:37:21;;;;;;;11.20;6.20;;;8.70;48.20;;;;;;5244809;28;20424;-47
2022/04/13 00:39:51;;;;;;;9.10;5.80;;;8.70;48.30;;;;;;5239993;28;20220;-46
2022/04/13 00:42:22;;;;;;;14.40;7.60;;;8.70;48.60;;;;;;5244844;28;20266;-48
2022/04/13 00:44:52;;;;;;;16.07;6.10;;;8.70;48.70;;;;;;5218532;28;20206;-47
2022/04/13 00:47:23;;;;;;;20.93;6.70;;;8.60;49.00;;;;;;5228419;28;20189;-47
2022/04/13 00:49:54;;;;;;;9.10;6.43;;;8.60;49.00;;;;;;5223776;28;20183;-46
2022/04/13 00:52:27;;;;;;;12.77;7.10;;;8.60;49.10;;;;;;5241631;28;20194;-46
2022/04/13 00:54:59;;;;;;;9.70;6.80;;;8.50;49.20;;;;;;5243212;28;20296;-46
2022/04/13 00:57:31;;;;;;;7.20;6.27;;;8.50;49.30;;;;;;5245733;28;20468;-47
2022/04/13 01:00:05;;;;;;;14.63;6.80;;;8.50;49.70;;;;;;5236049;28;20440;-46
2022/04/13 01:02:39;;;;;;;9.30;7.00;;;8.40;49.80;;;;;;5229126;28;20534;-46
2022/04/13 01:05:11;;;;;;;16.50;7.63;;;8.40;49.90;;;;;;5227038;28;20487;-48
2022/04/13 01:07:42;;;;;;;19.10;7.30;;;8.40;50.20;;;;;;5243973;28;20433;-46
2022/04/13 01:10:12;;;;;;;12.40;6.80;;;8.40;50.40;;;;;;5246033;28;20425;-47
2022/04/13 01:12:47;;;;;;;12.60;7.70;;;8.30;50.50;;;;;;5240012;28;20466;-46
2022/04/13 01:15:18;;;;;;;16.70;7.80;;;8.20;50.70;;;;;;5219336;28;20209;-46
2022/04/13 01:17:48;;;;;;;12.60;6.67;;;8.20;50.90;;;;;;5238847;28;20424;-46
2022/04/13 01:20:22;;;;;;;10.87;7.20;;;8.20;51.20;;;;;;5228606;28;20186;-47
2022/04/13 01:22:52;;;;;;;11.03;6.67;;;8.20;51.20;;;;;;5241904;28;20274;-47
2022/04/13 01:25:23;;;;;;;12.00;6.60;;;8.20;51.40;;;;;;5244721;28;20539;-48
2022/04/13 01:27:54;;;;;;;8.53;6.17;;;8.20;51.70;;;;;;5222338;28;20217;-46
2022/04/13 01:30:25;;;;;;;13.63;7.03;;;8.10;51.70;;;;;;5240299;28;20206;-46
2022/04/13 01:32:56;;;;;;;15.83;7.57;;;8.10;51.90;;;;;;5228293;28;20437;-48
2022/04/13 01:35:27;;;;;;;15.30;7.13;;;8.10;52.00;;;;;;5243847;28;20452;-46
2022/04/13 01:37:58;;;;;;;17.20;7.70;;;8.00;52.30;;;;;;5228800;28;20456;-47
2022/04/13 01:40:28;;;;;;;12.37;7.40;;;8.00;52.40;;;;;;5246619;28;20542;-48
2022/04/13 01:42:59;;;;;;;11.87;6.90;;;7.90;52.80;;;;;;5242501;28;20178;-47
2022/04/13 01:45:30;;;;;;;8.63;5.80;;;8.00;53.10;;;;;;5244379;28;20233;-47
2022/04/13 01:48:01;;;;;;;13.80;7.90;;;8.00;53.30;;;;;;5249325;28;20530;-47
2022/04/13 01:50:31;;;;;;;8.97;7.47;;;7.90;53.60;;;;;;5232657;28;20210;-46
2022/04/13 01:53:02;;;;;;;12.70;6.50;;;7.90;54.00;;;;;;5249519;28;20463;-46
2022/04/13 01:55:32;;;;;;;12.30;8.10;;;7.80;54.20;;;;;;5228982;28;20210;-48
2022/04/13 01:58:03;;;;;;;11.57;7.10;;;7.80;54.50;;;;;;5250506;28;20670;-46
2022/04/13 02:00:33;;;;;;;10.47;7.30;;;7.70;55.00;;;;;;5245032;28;20299;-47
2022/04/13 02:03:05;;;;;;;9.40;7.03;;;7.80;55.20;;;;;;5232419;28;20316;-47
2022/04/13 02:05:35;;;;;;;11.70;6.90;;;7.80;55.10;;;;;;5239692;28;20203;-48
2022/04/13 02:08:06;;;;;;;16.50;7.93;;;7.80;55.40;;;;;;5245436;28;20435;-48
2022/04/13 02:10:38;;;;;;;10.60;7.13;;;7.80;55.90;;;;;;5247121;28;20201;-47
2022/04/13 02:13:08;;;;;;;15.67;6.67;;;7.70;55.90;;;;;;5248086;28;20187;-48
2022/04/13 02:15:39;;;;;;;14.77;7.27;;;7.70;56.30;;;;;;5245863;28;20444;-48
2022/04/13 02:18:09;;;;;;;14.83;7.53;;;7.70;56.60;;;;;;5249069;28;20564;-47
2022/04/13 02:20:40;;;;;;;11.47;7.03;;;7.70;56.90;;;;;;5225780;28;20192;-46
2022/04/13 02:23:10;;;;;;;12.00;7.03;;;7.60;57.20;;;;;;5240418;28;20276;-46
2022/04/13 02:25:41;;;;;;;18.47;7.70;;;7.60;57.60;;;;;;5247529;28;20328;-46
2022/04/13 02:28:11;;;;;;;8.97;6.00;;;7.60;58.30;;;;;;5247381;28;20182;-47
2022/04/13 02:30:42;;;;;;;7.60;6.80;;;7.50;58.70;;;;;;5224428;28;20201;-47
2022/04/13 02:33:13;;;;;;;16.13;7.87;;;7.50;59.00;;;;;;5236322;28;20179;-47
2022/04/13 02:35:43;;;;;;;17.30;7.67;;;7.50;59.30;;;;;;5239664;28;20198;-46
2022/04/13 02:38:16;;;;;;;12.30;6.97;;;7.50;59.70;;;;;;5248942;28;20433;-49
2022/04/13 02:40:47;;;;;;;12.37;7.40;;;7.50;60.50;;;;;;5248869;28;20174;-48
2022/04/13 02:43:17;;;;;;;8.67;6.93;;;7.50;60.90;;;;;;5232291;28;20443;-49
2022/04/13 02:45:48;;;;;;;12.77;7.10;;;7.40;61.40;;;;;;5246017;28;20294;-49
2022/04/13 02:48:18;;;;;;;36.77;8.30;;;7.40;62.00;;;;;;5247304;28;20640;-50
2022/04/13 02:50:49;;;;;;;10.13;7.50;;;7.40;62.70;;;;;;5250776;28;20317;-50
2022/04/13 02:53:20;;;;;;;20.00;6.90;;;7.30;63.00;;;;;;5247306;28;20181;-48
2022/04/13 02:55:51;;;;;;;20.20;7.80;;;7.30;63.80;;;;;;5227926;28;20229;-47
2022/04/13 02:58:21;;;;;;;14.47;7.97;;;7.30;64.70;;;;;;5247266;28;20182;-48
2022/04/13 03:00:52;;;;;;;15.10;7.20;;;7.30;64.80;;;;;;5225306;28;20438;-49
2022/04/13 03:03:23;;;;;;;14.50;7.27;;;7.30;65.40;;;;;;5234289;28;20579;-49
2022/04/13 03:05:53;;;;;;;12.20;7.20;;;7.30;65.80;;;;;;5214746;28;20603;-49
2022/04/13 03:08:24;;;;;;;14.77;7.60;;;7.30;66.40;;;;;;5241691;28;20218;-49
2022/04/13 03:10:55;;;;;;;13.23;7.33;;;7.20;67.20;;;;;;5240743;28;20202;-50
2022/04/13 03:13:25;;;;;;;21.07;7.83;;;7.20;67.60;;;;;;5249522;28;20310;-50
2022/04/13 03:15:55;;;;;;;15.30;7.63;;;7.20;68.40;;;;;;5235305;28;20204;-50
2022/04/13 03:18:26;;;;;;;12.70;7.37;;;7.20;68.70;;;;;;5227686;28;20181;-50
2022/04/13 03:20:56;;;;;;;13.27;7.63;;;7.20;69.00;;;;;;5230982;28;20615;-49
2022/04/13 03:23:27;;;;;;;10.90;6.73;;;7.20;69.30;;;;;;5243832;28;20219;-48
2022/04/13 03:25:58;;;;;;;10.90;7.13;;;7.20;70.00;;;;;;5246026;28;20217;-49
2022/04/13 03:28:28;;;;;;;16.30;7.30;;;7.10;70.60;;;;;;5228694;28;20205;-49
2022/04/13 03:30:59;;;;;;;20.33;9.03;;;7.10;71.40;;;;;;5230578;28;20536;-49
2022/04/13 03:33:30;;;;;;;13.27;7.10;;;7.00;72.10;;;;;;5230607;28;20189;-50
2022/04/13 03:36:00;;;;;;;13.70;7.90;;;7.00;73.00;;;;;;5225738;28;20225;-49
2022/04/13 03:38:31;;;;;;;14.77;8.03;;;7.00;73.80;;;;;;5245126;28;20177;-50
2022/04/13 03:41:04;;;;;;;17.33;8.37;;;7.00;73.90;;;;;;5244700;28;20276;-49
2022/04/13 03:43:35;;;;;;;18.67;8.40;;;7.00;74.40;;;;;;5241670;28;20239;-48
2022/04/13 03:46:05;;;;;;;16.07;7.57;;;6.90;74.80;;;;;;5230367;28;20455;-48
2022/04/13 03:48:36;;;;;;;17.93;7.63;;;6.90;75.70;;;;;;5241996;28;20178;-48
2022/04/13 03:51:06;;;;;;;14.20;7.43;;;7.00;75.90;;;;;;5236333;28;20237;-50
2022/04/13 03:53:37;;;;;;;16.17;7.03;;;7.00;76.60;;;;;;5240337;28;20268;-51
2022/04/13 03:56:07;;;;;;;17.53;8.80;;;6.90;76.80;;;;;;5239783;28;20198;-50
2022/04/13 03:58:40;;;;;;;20.90;8.40;;;6.90;77.30;;;;;;5227028;28;20212;-48
2022/04/13 04:01:11;;;;;;;10.90;6.50;;;6.80;77.70;;;;;;5247625;28;20630;-49
2022/04/13 04:03:41;;;;;;;13.07;7.57;;;6.90;78.40;;;;;;5244075;28;20493;-50
2022/04/13 04:06:12;;;;;;;13.80;7.80;;;6.90;78.90;;;;;;5229581;28;20203;-50
2022/04/13 04:08:43;;;;;;;16.73;8.47;;;6.90;78.70;;;;;;5238172;28;20181;-49
2022/04/13 04:11:14;;;;;;;20.00;9.00;;;6.90;78.20;;;;;;5241528;28;20396;-48
2022/04/13 04:13:44;;;;;;;9.60;7.40;;;6.90;78.50;;;;;;5239540;28;20170;-48
2022/04/13 04:16:16;;;;;;;16.07;8.70;;;6.90;78.60;;;;;;5238708;28;20454;-49
2022/04/13 04:18:48;;;;;;;16.63;8.30;;;6.90;79.00;;;;;;5234712;28;20540;-49
2022/04/13 04:21:19;;;;;;;12.03;7.40;;;6.90;78.70;;;;;;5229312;28;20522;-48
2022/04/13 04:23:49;;;;;;;13.40;7.73;;;6.90;79.00;;;;;;5229975;28;20523;-49
2022/04/13 04:26:20;;;;;;;13.07;8.87;;;6.90;79.40;;;;;;5225915;28;20198;-49
2022/04/13 04:28:50;;;;;;;14.53;6.83;;;7.00;79.10;;;;;;5234963;28;20509;-49
2022/04/13 04:31:49;;;;;;;22.83;7.70;;;7.00;78.80;;;;;;5218474;28;20222;-51
2022/04/13 04:34:11;;;;;;;16.43;7.27;;;7.00;79.10;;;;;;5243632;28;20204;-49
2022/04/13 04:36:42;;;;;;;10.20;7.27;;;7.00;79.00;;;;;;5245810;28;20915;-48
2022/04/13 04:39:13;;;;;;;11.57;8.23;;;7.00;79.20;;;;;;5242407;28;20177;-48
2022/04/13 04:41:44;;;;;;;15.00;7.80;;;7.00;78.90;;;;;;5240450;28;20586;-48
2022/04/13 04:44:14;;;;;;;8.33;6.87;;;7.00;78.90;;;;;;5243341;28;20211;-48
2022/04/13 04:46:45;;;;;;;9.73;7.10;;;7.10;78.70;;;;;;5243567;28;20599;-50
2022/04/13 04:49:15;;;;;;;15.17;7.20;;;7.10;78.50;;;;;;5242568;28;20194;-49
2022/04/13 04:51:45;;;;;;;11.00;8.00;;;7.10;78.00;;;;;;5212855;28;20261;-48
2022/04/13 04:54:16;;;;;;;17.37;8.70;;;7.20;77.70;;;;;;5228289;28;20628;-48
2022/04/13 04:56:47;;;;;;;12.53;8.47;;;7.30;77.40;;;;;;5244510;28;20191;-50
2022/04/13 04:59:17;;;;;;;11.80;7.43;;;7.30;76.90;;;;;;5225286;28;20229;-48
2022/04/13 05:01:48;;;;;;;12.17;7.50;;;7.40;76.10;;;;;;5213880;28;20205;-49
2022/04/13 05:04:18;;;;;;;13.17;7.93;;;7.60;75.30;;;;;;5222587;28;20206;-48
2022/04/13 05:06:49;;;;;;;18.03;8.63;;;7.60;74.40;;;;;;5233585;28;20192;-49
2022/04/13 05:09:20;;;;;;;13.80;7.60;;;7.60;73.60;;;;;;5235806;28;20645;-47
2022/04/13 05:11:51;;;;;;;15.90;8.00;;;7.80;72.20;;;;;;5243128;28;20209;-49
2022/04/13 05:14:22;;;;;;;19.97;8.00;;;8.00;70.80;;;;;;5229370;28;20875;-48
2022/04/13 05:16:52;;;;;;;11.93;7.37;;;8.20;69.80;;;;;;5250443;28;20301;-49
2022/04/13 05:19:23;;;;;;;16.67;8.37;;;8.30;68.10;;;;;;5250362;28;20561;-48
2022/04/13 05:21:53;;;;;;;16.30;7.60;;;8.50;66.30;;;;;;5221403;28;20507;-49
2022/04/13 05:24:24;;;;;;;23.87;8.90;;;8.70;65.10;;;;;;5248890;28;20213;-49
2022/04/13 05:26:54;;;;;;;26.03;8.20;;;8.70;64.10;;;;;;5226582;28;20187;-49
2022/04/13 05:29:25;;;;;;;16.40;8.57;;;8.80;63.60;;;;;;5245665;28;20182;-49
2022/04/13 05:31:55;;;;;;;11.70;7.57;;;9.10;62.50;;;;;;5232471;28;20289;-48
2022/04/13 05:34:26;;;;;;;14.20;7.50;;;9.10;60.90;;;;;;5240562;28;20717;-49
2022/04/13 05:36:56;;;;;;;13.47;8.37;;;9.10;60.90;;;;;;5246409;28;20178;-49
2022/04/13 05:39:27;;;;;;;12.80;7.90;;;9.20;60.50;;;;;;5231054;28;20175;-48
2022/04/13 05:41:57;;;;;;;10.13;7.60;;;9.30;59.90;;;;;;5228192;28;20189;-50
2022/04/13 05:44:28;;;;;;;11.60;7.30;;;9.50;59.00;;;;;;5249604;28;20268;-50
2022/04/13 05:46:58;;;;;;;13.97;7.93;;;9.90;58.00;;;;;;5228901;28;20205;-50
2022/04/13 05:49:29;;;;;;;31.23;9.07;;;10.40;55.80;;;;;;5246451;28;20613;-49
2022/04/13 05:51:59;;;;;;;11.73;7.33;;;10.90;53.60;;;;;;5239699;28;20206;-48
2022/04/13 05:54:30;;;;;;;10.17;7.73;;;11.40;51.80;;;;;;5238034;28;20199;-49
2022/04/13 05:57:02;;;;;;;21.77;9.40;;;11.90;50.10;;;;;;5249241;28;20217;-49
2022/04/13 05:59:33;;;;;;;18.63;8.43;;;12.20;49.10;;;;;;5246762;28;20589;-48
2022/04/13 06:02:04;;;;;;;16.37;8.00;;;12.70;47.60;;;;;;5250562;28;20443;-49
2022/04/13 06:04:35;;;;;;;12.50;8.30;;;13.10;46.30;;;;;;5242627;28;20202;-48
2022/04/13 06:07:05;;;;;;;14.87;9.30;;;13.40;45.00;;;;;;5245977;28;20444;-51
2022/04/13 06:09:36;;;;;;;16.30;8.30;;;14.00;44.90;;;;;;5249507;28;20606;-50
2022/04/13 06:12:07;;;;;;;9.03;6.80;;;14.20;42.80;;;;;;5237523;28;20217;-50
2022/04/13 06:14:38;;;;;;;11.17;8.20;;;14.10;42.10;;;;;;5242765;28;20571;-51
2022/04/13 06:17:08;;;;;;;18.80;8.67;;;14.20;42.30;;;;;;5247030;28;20436;-50
2022/04/13 06:19:38;;;;;;;14.97;8.77;;;14.40;41.90;;;;;;5251493;28;20193;-50
2022/04/13 06:22:09;;;;;;;16.83;8.40;;;14.60;41.70;;;;;;5240114;28;20535;-48
2022/04/13 06:24:39;;;;;;;11.73;8.30;;;15.00;41.10;;;;;;5226941;28;20300;-48
2022/04/13 06:27:10;;;;;;;19.10;9.43;;;15.30;40.40;;;;;;5238198;28;20179;-49
2022/04/13 06:29:40;;;;;;;18.67;8.70;;;15.80;39.30;;;;;;5237123;28;20182;-50
2022/04/13 06:32:15;;;;;;;10.50;7.83;;;16.20;38.30;;;;;;5227936;28;20202;-49
2022/04/13 06:34:45;;;;;;;17.13;9.40;;;16.80;38.00;;;;;;5227458;28;20198;-48
2022/04/13 06:37:16;;;;;;;13.07;8.20;;;17.10;36.40;;;;;;5239159;28;20749;-47
2022/04/13 06:39:46;;;;;;;14.40;9.40;;;17.00;36.30;;;;;;5228263;28;20182;-47
2022/04/13 06:42:17;;;;;;;13.30;8.37;;;16.80;36.20;;;;;;5221871;28;20265;-48
2022/04/13 06:44:57;;;;;;;13.60;8.80;;;16.50;36.70;;;;;;5242428;28;20207;-49
2022/04/13 06:47:29;;;;;;;14.50;8.67;;;16.40;37.10;;;;;;5238605;28;20437;-47
2022/04/13 06:49:59;;;;;;;13.50;8.83;;;16.70;36.70;;;;;;5244419;28;20514;-47
2022/04/13 06:52:34;;;;;;;11.03;8.73;;;16.80;36.40;;;;;;5223617;28;20457;-48
2022/04/13 06:55:06;;;;;;;17.60;9.17;;;17.20;36.20;;;;;;5224519;28;20230;-47
2022/04/13 06:57:37;;;;;;;18.17;8.60;;;17.50;35.30;;;;;;5236075;28;20444;-49
2022/04/13 07:00:10;;;;;;;16.07;8.57;;;17.90;34.90;;;;;;5222984;28;20436;-48
2022/04/13 07:02:41;;;;;;;12.73;8.77;;;17.80;34.60;;;;;;5239373;28;20858;-50
2022/04/13 07:05:11;;;;;;;14.63;8.70;;;17.80;34.70;;;;;;5223564;28;20536;-49
2022/04/13 07:07:42;;;;;;;9.97;7.63;;;18.30;34.40;;;;;;5238328;28;20178;-49
2022/04/13 07:10:12;;;;;;;18.93;8.80;;;18.60;33.60;;;;;;5227961;28;20638;-48
2022/04/13 07:12:43;;;;;;;12.60;8.70;;;19.00;33.10;;;;;;5227235;28;20642;-49
2022/04/13 07:15:17;;;;;;;16.33;9.00;;;19.60;32.80;;;;;;5223062;28;20206;-48
2022/04/13 07:17:47;;;;;;;17.57;8.83;;;19.80;31.90;;;;;;5225384;28;20270;-48
2022/04/13 07:20:18;;;;;;;19.43;9.03;;;19.80;31.80;;;;;;5239513;28;20437;-50
2022/04/13 07:22:50;;;;;;;14.20;7.73;;;19.50;31.60;;;;;;5258812;28;20634;-49
2022/04/13 07:25:22;;;;;;;16.67;7.60;;;19.70;31.70;;;;;;5224791;28;20570;-49
2022/04/13 07:27:53;;;;;;;16.57;8.17;;;20.00;31.40;;;;;;5240601;28;20428;-47
2022/04/13 07:30:23;;;;;;;16.83;9.30;;;20.40;30.80;;;;;;5224448;28;20428;-50
2022/04/13 07:33:01;;;;;;;14.60;7.93;;;20.40;30.60;;;;;;5223800;28;20186;-50
2022/04/13 07:35:32;;;;;;;16.43;8.37;;;20.30;30.70;;;;;;5242833;28;20202;-51
2022/04/13 07:38:02;;;;;;;10.80;7.67;;;20.60;30.30;;;;;;5244592;28;20431;-48
2022/04/13 07:40:33;;;;;;;12.73;7.57;;;21.20;30.00;;;;;;5242345;28;20178;-48
2022/04/13 07:43:04;;;;;;;9.80;8.03;;;22.00;29.40;;;;;;5240683;28;20211;-50
2022/04/13 07:45:35;;;;;;;12.90;8.73;;;21.60;28.80;;;;;;5224581;28;20506;-49
2022/04/13 07:48:06;;;;;;;14.33;8.27;;;20.90;29.50;;;;;;5242511;28;20201;-46
2022/04/13 07:50:36;;;;;;;14.47;8.60;;;20.60;29.80;;;;;;5239629;28;20465;-48
2022/04/13 07:53:07;;;;;;;13.90;9.33;;;20.40;30.00;;;;;;5240943;28;20175;-49
2022/04/13 07:55:37;;;;;;;15.60;8.47;;;20.10;30.50;;;;;;5222885;28;20194;-48
2022/04/13 07:58:08;;;;;;;13.90;8.60;;;19.70;30.90;;;;;;5242539;28;20657;-47
2022/04/13 08:00:38;;;;;;;17.40;8.97;;;19.50;31.10;;;;;;5243848;28;21552;-46
2022/04/13 08:03:09;;;;;;;16.70;8.53;;;19.30;31.20;;;;;;5221379;28;21584;-48
2022/04/13 08:05:40;;;;;;;19.17;7.90;;;19.20;31.50;;;;;;5242595;28;20590;-46
2022/04/13 08:08:11;;;;;;;16.33;7.70;;;19.30;32.10;;;;;;5223266;28;20183;-46
2022/04/13 08:10:41;;;;;;;14.40;8.13;;;19.00;31.70;;;;;;5223717;28;20464;-47
2022/04/13 08:13:12;;;;;;;15.57;8.63;;;18.90;32.70;;;;;;5243669;28;20178;-48
2022/04/13 08:15:42;;;;;;;11.47;8.10;;;18.70;32.80;;;;;;5236600;28;20217;-48
2022/04/13 08:18:13;;;;;;;16.63;9.07;;;18.90;33.10;;;;;;5236348;28;20243;-49
2022/04/13 08:20:45;;;;;;;17.57;8.67;;;19.30;32.50;;;;;;5243191;28;20183;-48
2022/04/13 08:23:16;;;;;;;23.03;8.40;;;19.00;32.10;;;;;;5220814;28;20186;-46
2022/04/13 08:25:46;;;;;;;14.77;8.60;;;18.50;32.70;;;;;;5226024;28;20499;-48
2022/04/13 08:28:17;;;;;;;19.17;8.30;;;18.00;33.90;;;;;;5225010;28;20432;-46
2022/04/13 08:30:47;;;;;;;14.13;8.83;;;17.60;34.40;;;;;;5222769;28;20228;-48
2022/04/13 08:33:18;;;;;;;15.17;8.47;;;17.10;35.40;;;;;;5241589;28;20190;-48
2022/04/13 08:35:49;;;;;;;12.70;8.53;;;17.10;35.60;;;;;;5247709;28;20483;-47
2022/04/13 08:38:19;;;;;;;9.70;7.40;;;17.10;36.00;;;;;;5238270;28;20542;-49
2022/04/13 08:40:58;;;;;;;12.40;8.10;;;17.00;35.80;;;;;;5244136;28;20671;-47
2022/04/13 08:43:49;;;;;;;16.23;8.03;;;16.90;36.20;;;;;;5235784;28;20254;-47
2022/04/13 08:46:27;;;;;;;14.03;9.40;;;16.90;36.30;;;;;;5240380;28;20455;-46
2022/04/13 08:49:03;;;;;;;18.60;8.67;;;16.70;36.60;;;;;;5243826;28;20832;-50
2022/04/13 08:51:35;;;;;;;17.60;8.83;;;16.50;36.30;;;;;;5256940;28;20472;-51
2022/04/13 08:54:13;;;;;;;18.20;8.53;;;16.60;36.90;;;;;;5243294;28;20487;-48
2022/04/13 08:56:48;;;;;;;11.63;8.47;;;16.50;37.20;;;;;;5239358;28;20499;-46
2022/04/13 08:59:51;;;;;;;16.90;7.77;;;16.80;36.90;;;;;;5246160;28;20444;-50
2022/04/13 09:02:39;;;;;;;13.13;8.03;;;16.50;36.50;;;;;;5245777;28;20435;-47
2022/04/13 09:05:12;;;;;;;16.80;8.53;;;16.30;37.30;;;;;;5238210;28;20824;-47
2022/04/13 09:07:46;;;;;;;17.87;8.27;;;16.30;37.70;;;;;;5228336;28;20527;-48
2022/04/13 09:10:20;;;;;;;13.40;8.10;;;16.40;37.40;;;;;;5224280;28;20507;-48
2022/04/13 09:12:52;;;;;;;14.00;7.40;;;16.60;37.40;;;;;;5240301;28;20442;-47
2022/04/13 09:15:24;;;;;;;11.77;8.07;;;16.70;37.00;;;;;;5253986;28;20452;-47
2022/04/13 09:17:55;;;;;;;15.30;8.27;;;16.50;37.20;;;;;;5240093;28;20509;-49
2022/04/13 09:20:26;;;;;;;11.23;8.43;;;16.50;37.50;;;;;;5238609;28;20432;-49
2022/04/13 09:22:59;;;;;;;15.77;8.30;;;16.60;37.50;;;;;;5218933;28;20444;-48
2022/04/13 09:25:32;;;;;;;14.90;8.30;;;16.50;37.30;;;;;;5235647;28;20222;-50
2022/04/13 09:28:03;;;;;;;20.00;8.53;;;16.40;37.90;;;;;;5242239;28;20428;-49
2022/04/13 09:30:34;;;;;;;20.03;8.83;;;16.40;37.80;;;;;;5237499;28;20810;-50
2022/04/13 09:33:05;;;;;;;18.97;8.93;;;16.50;37.80;;;;;;5243153;28;20432;-50
2022/04/13 09:35:36;;;;;;;13.17;8.60;;;16.60;37.60;;;;;;5239950;28;20452;-51
2022/04/13 09:38:07;;;;;;;18.03;9.17;;;16.70;37.50;;;;;;5241250;28;20463;-50
2022/04/13 09:40:40;;;;;;;10.30;7.60;;;16.60;37.20;;;;;;5223584;28;20195;-50
2022/04/13 09:43:15;;;;;;;12.93;7.77;;;16.70;37.40;;;;;;5217322;28;20461;-49
2022/04/13 09:45:49;;;;;;;17.90;8.77;;;16.80;37.70;;;;;;5242042;28;20461;-52
2022/04/13 09:48:22;;;;;;;17.40;7.43;;;16.80;37.40;;;;;;5238010;28;20853;-53
2022/04/13 09:50:55;;;;;;;18.10;8.57;;;17.00;37.10;;;;;;5233668;28;20599;-51
2022/04/13 09:53:26;;;;;;;17.20;8.67;;;17.10;37.60;;;;;;5242120;28;20428;-51
2022/04/13 09:56:01;;;;;;;14.13;7.37;;;17.10;36.80;;;;;;5225767;28;20920;-50
2022/04/13 09:58:33;;;;;;;16.87;8.30;;;17.20;36.80;;;;;;5240948;28;20425;-51
2022/04/13 10:01:06;;;;;;;17.73;7.90;;;17.20;36.90;;;;;;5242797;28;20523;-50
2022/04/13 10:03:36;;;;;;;14.60;8.30;;;17.20;37.20;;;;;;5225541;28;20620;-51
2022/04/13 10:06:07;;;;;;;19.40;7.63;;;17.50;36.70;;;;;;5240899;28;20457;-51
2022/04/13 10:08:37;;;;;;;14.70;8.70;;;17.70;36.10;;;;;;5227852;28;20210;-50
2022/04/13 10:11:08;;;;;;;15.10;8.00;;;17.70;36.20;;;;;;5240195;28;20206;-49
2022/04/13 10:13:43;;;;;;;17.90;9.00;;;17.80;36.50;;;;;;5226579;28;20611;-52
2022/04/13 10:16:16;;;;;;;16.47;9.20;;;18.00;36.30;;;;;;5242742;28;20193;-51
2022/04/13 10:18:56;;;;;;;15.37;8.23;;;18.30;36.30;;;;;;5238785;28;20443;-51
2022/04/13 10:21:40;;;;;;;10.30;7.40;;;18.60;35.60;;;;;;5245685;28;20515;-50
2022/04/13 10:24:25;;;;;;;12.20;6.70;;;18.60;35.20;;;;;;5257549;28;20558;-50
2022/04/13 10:27:02;;;;;;;15.50;7.20;;;18.70;35.10;;;;;;5228721;28;20452;-49
2022/04/13 10:29:51;;;;;;;13.50;7.37;;;18.90;34.70;;;;;;5242162;28;20432;-49
2022/04/13 10:32:25;;;;;;;9.33;6.60;;;19.20;34.50;;;;;;5230632;28;20472;-49
2022/04/13 10:34:56;;;;;;;13.43;8.00;;;19.20;33.80;;;;;;5225539;28;20447;-48
2022/04/13 10:37:27;;;;;;;12.60;7.03;;;19.40;34.10;;;;;;5238253;28;20440;-50
2022/04/13 10:40:00;;;;;;;18.47;8.00;;;19.40;34.10;;;;;;5238563;28;20170;-49
2022/04/13 10:42:34;;;;;;;23.53;7.33;;;19.40;34.10;;;;;;5240562;28;20436;-51
2022/04/13 10:45:06;;;;;;;14.20;7.33;;;19.50;33.80;;;;;;5229304;28;20445;-50
2022/04/13 10:47:52;;;;;;;11.27;7.17;;;19.50;34.00;;;;;;5239021;28;20865;-51
2022/04/13 10:50:36;;;;;;;11.23;6.90;;;19.40;33.70;;;;;;5245438;28;20811;-52
2022/04/13 10:53:10;;;;;;;16.27;7.37;;;19.20;33.90;;;;;;5241901;28;20459;-50
2022/04/13 10:55:42;;;;;;;8.83;6.73;;;19.40;34.00;;;;;;5244123;28;20782;-51
2022/04/13 10:58:24;;;;;;;12.63;6.43;;;19.50;34.20;;;;;;5245988;28;20435;-51
2022/04/13 11:01:04;;;;;;;11.57;6.60;;;19.60;34.30;;;;;;5242441;28;20949;-50
2022/04/13 11:03:36;;;;;;;13.10;7.70;;;19.50;34.40;;;;;;5223317;28;20435;-51
2022/04/13 11:06:10;;;;;;;11.93;7.30;;;19.40;34.30;;;;;;5240382;28;20877;-51
2022/04/13 11:08:57;;;;;;;16.20;7.60;;;19.50;34.50;;;;;;5244992;28;20784;-50
2022/04/13 11:11:29;;;;;;;10.77;7.10;;;19.70;34.10;;;;;;5234796;28;21003;-49
2022/04/13 11:14:00;;;;;;;10.67;7.33;;;19.80;34.10;;;;;;5234210;28;20440;-50
2022/04/13 11:16:31;;;;;;;15.90;8.30;;;19.90;33.40;;;;;;5233753;28;20421;-51
2022/04/13 11:19:01;;;;;;;8.20;6.07;;;19.70;34.10;;;;;;5248040;28;20229;-51
2022/04/13 11:22:08;;;;;;;13.60;6.60;;;19.80;34.00;;;;;;5222825;28;20214;-52
2022/04/13 11:24:49;;;;;;;11.00;6.60;;;19.80;34.00;;;;;;5244902;28;20581;-49
2022/04/13 11:27:20;;;;;;;10.00;6.70;;;19.90;33.90;;;;;;5239468;28;20451;-51
2022/04/13 11:30:02;;;;;;;10.90;6.17;;;19.90;34.00;;;;;;5222307;28;20444;-50
2022/04/13 11:32:35;;;;;;;9.43;5.90;;;19.90;34.10;;;;;;5225820;28;20297;-51
2022/04/13 11:35:06;;;;;;;8.63;6.10;;;20.10;33.90;;;;;;5244253;28;20460;-49
2022/04/13 11:37:37;;;;;;;14.53;7.20;;;20.40;33.80;;;;;;5242352;28;20445;-49
2022/04/13 11:40:17;;;;;;;10.30;6.33;;;20.50;33.40;;;;;;5246925;28;20436;-51
2022/04/13 11:42:49;;;;;;;14.80;7.00;;;20.50;33.20;;;;;;5223040;28;20178;-49
2022/04/13 11:45:21;;;;;;;9.77;6.10;;;20.50;33.60;;;;;;5225185;28;20457;-50
2022/04/13 11:47:54;;;;;;;11.23;5.90;;;20.30;33.30;;;;;;5226966;28;20441;-49
2022/04/13 11:50:27;;;;;;;13.63;6.70;;;20.20;34.20;;;;;;5223606;28;20445;-51
2022/04/13 11:53:10;;;;;;;8.90;6.40;;;20.20;34.10;;;;;;5226557;28;20456;-51
2022/04/13 11:55:40;;;;;;;8.70;6.80;;;20.30;33.40;;;;;;5231896;28;20462;-49
2022/04/13 11:58:13;;;;;;;11.93;5.87;;;20.40;33.20;;;;;;5249563;28;20796;-47
2022/04/13 12:00:58;;;;;;;10.97;6.70;;;20.30;32.90;;;;;;5228853;28;20624;-49
2022/04/13 12:03:30;;;;;;;12.37;6.63;;;20.20;32.80;;;;;;5240834;28;20440;-47
2022/04/13 12:06:15;;;;;;;16.10;5.70;;;20.30;33.60;;;;;;5218889;28;20535;-49
2022/04/13 12:08:50;;;;;;;8.43;5.60;;;20.40;34.50;;;;;;5242879;28;20440;-49
2022/04/13 12:11:22;;;;;;;6.40;5.40;;;20.50;34.90;;;;;;5239929;28;20470;-48
2022/04/13 12:13:58;;;;;;;6.67;5.37;;;20.30;33.10;;;;;;5238736;28;20430;-47
2022/04/13 12:16:32;;;;;;;12.07;6.90;;;20.10;32.90;;;;;;5240825;28;20428;-48
2022/04/13 12:19:05;;;;;;;7.67;5.47;;;20.10;33.60;;;;;;5242434;28;20424;-48
2022/04/13 12:21:38;;;;;;;12.53;5.70;;;20.10;33.90;;;;;;5235183;28;20441;-49
2022/04/13 12:24:10;;;;;;;10.00;6.37;;;20.10;33.80;;;;;;5234202;28;20940;-50
2022/04/13 12:26:44;;;;;;;12.60;5.90;;;20.10;34.00;;;;;;5240684;28;20912;-49
2022/04/13 12:29:20;;;;;;;7.47;5.00;;;20.30;33.80;;;;;;5242885;28;20428;-49
2022/04/13 12:31:53;;;;;;;9.87;6.17;;;20.20;33.50;;;;;;5228898;28;20456;-50
2022/04/13 12:34:26;;;;;;;9.00;6.07;;;20.40;33.70;;;;;;5231183;28;20459;-49
2022/04/13 12:37:02;;;;;;;7.20;5.60;;;20.60;33.80;;;;;;5239456;28;20936;-50
2022/04/13 12:39:34;;;;;;;10.70;5.83;;;20.60;33.50;;;;;;5219913;28;20443;-51
2022/04/13 12:42:05;;;;;;;8.53;5.80;;;20.60;33.30;;;;;;5241857;28;20482;-50
2022/04/13 12:44:45;;;;;;;10.20;5.40;;;20.70;33.60;;;;;;5223338;28;20457;-50
2022/04/13 12:47:16;;;;;;;9.50;5.10;;;20.70;33.20;;;;;;5219847;28;21001;-50
2022/04/13 12:50:00;;;;;;;7.40;5.53;;;20.80;33.30;;;;;;5222284;28;20747;-50
2022/04/13 12:52:30;;;;;;;7.77;4.73;;;20.90;33.00;;;;;;5222984;28;20487;-48
2022/04/13 12:55:02;;;;;;;10.63;6.00;;;20.90;33.20;;;;;;5225143;28;20456;-52
2022/04/13 12:57:33;;;;;;;6.10;4.50;;;20.80;33.10;;;;;;5244968;28;20182;-48
2022/04/13 13:00:05;;;;;;;8.07;5.90;;;20.80;33.40;;;;;;5246919;28;20931;-48
2022/04/13 13:02:36;;;;;;;9.70;4.97;;;20.80;32.90;;;;;;5243459;28;20272;-48
2022/04/13 13:05:09;;;;;;;11.00;5.90;;;20.90;33.10;;;;;;5248170;28;20885;-52
2022/04/13 13:07:40;;;;;;;12.33;5.83;;;20.90;33.30;;;;;;5241786;28;20564;-51
2022/04/13 13:10:10;;;;;;;7.50;5.73;;;21.10;33.20;;;;;;5207128;28;20444;-50